createdAt,value
2023-04-15T00:01:23.625Z,100094.28
2023-04-15T00:06:27.084Z,100092.41
2023-04-15T00:11:31.011Z,100085.31
2023-04-15T00:16:33.290Z,100077.44
2023-04-15T00:21:36.870Z,100077.41
2023-04-15T00:26:39.304Z,100080.13
2023-04-15T00:31:41.379Z,100066.00
2023-04-15T00:36:44.835Z,100067.78
2023-04-15T00:41:46.740Z,100061.56
2023-04-15T00:46:50.908Z,100069.41
2023-04-15T00:51:57.333Z,100067.59
2023-04-15T00:56:59.720Z,100064.09
2023-04-15T01:02:01.931Z,100065.84
2023-04-15T01:07:05.306Z,100060.44
2023-04-15T01:12:08.080Z,100052.59
2023-04-15T01:17:10.584Z,100049.84
2023-04-15T01:22:14.530Z,100052.56
2023-04-15T01:27:18.073Z,100042.88
2023-04-15T01:32:20.329Z,100052.56
2023-04-15T01:37:22.139Z,100051.72
2023-04-15T01:42:26.449Z,100049.88
2023-04-15T01:47:28.547Z,100048.03
2023-04-15T01:52:30.555Z,100045.41
2023-04-15T01:57:34.093Z,100045.41
2023-04-15T02:02:36.266Z,100038.44
2023-04-15T02:07:38.398Z,100037.53
2023-04-15T02:12:41.877Z,100032.31
2023-04-15T02:17:44.112Z,100027.88
2023-04-15T02:22:45.825Z,100026.19
2023-04-15T02:27:49.022Z,100027.97
2023-04-15T02:32:51.045Z,100028.91
2023-04-15T02:37:53.136Z,100021.84
2023-04-15T02:42:56.619Z,100021.91
2023-04-15T02:47:58.829Z,100025.44
2023-04-15T02:53:00.852Z,100029.84
2023-04-15T02:58:04.677Z,100011.34
2023-04-15T03:03:07.088Z,100028.09
2023-04-15T03:08:09.352Z,100020.16
2023-04-15T03:13:12.602Z,100028.06
2023-04-15T03:18:14.805Z,100022.75
2023-04-15T03:23:16.850Z,100027.16
2023-04-15T03:28:20.399Z,100033.28
2023-04-15T03:33:22.512Z,100027.97
2023-04-15T03:38:24.255Z,100029.72
2023-04-15T03:43:27.705Z,100032.38
2023-04-15T03:48:29.752Z,100021.81
2023-04-15T03:53:31.854Z,100029.69
2023-04-15T03:58:35.240Z,100027.94
2023-04-15T04:03:37.528Z,100034.06
2023-04-15T04:08:39.333Z,100034.03
2023-04-15T04:13:42.422Z,100033.03
2023-04-15T04:18:44.341Z,100030.13
2023-04-15T04:23:46.191Z,100037.88
2023-04-15T04:28:49.764Z,100040.72
2023-04-15T04:33:51.826Z,100042.28
2023-04-15T04:38:54.479Z,100043.22
2023-04-15T04:43:57.990Z,100041.59
2023-04-15T04:49:00.188Z,100039.00
2023-04-15T04:54:03.698Z,100048.69
2023-04-15T04:59:07.336Z,100042.53
2023-04-15T05:04:09.606Z,100049.56
2023-04-15T05:09:11.478Z,100049.47
2023-04-15T05:14:14.986Z,100051.16
2023-04-15T05:19:17.285Z,100056.38
2023-04-15T05:24:19.707Z,100057.09
2023-04-15T05:29:23.115Z,100059.50
2023-04-15T05:34:25.304Z,100060.38
2023-04-15T05:39:27.444Z,100061.19
2023-04-15T05:44:30.917Z,100067.31
2023-04-15T05:49:32.654Z,100073.28
2023-04-15T05:54:34.631Z,100075.75
2023-04-15T05:59:37.689Z,100068.53
2023-04-15T06:04:39.458Z,100074.25
2023-04-15T06:09:42.250Z,100070.75
2023-04-15T06:14:45.865Z,100058.03
2023-04-15T06:19:47.813Z,100064.03
2023-04-15T06:24:50.838Z,100074.50
2023-04-15T06:29:54.466Z,100082.16
2023-04-15T06:34:56.622Z,100076.31
2023-04-15T06:39:58.764Z,100090.78
2023-04-15T06:45:05.996Z,100095.75
2023-04-15T06:50:09.124Z,100108.75
2023-04-15T06:55:12.405Z,100105.38
2023-04-15T07:00:16.353Z,100110.78
2023-04-15T07:05:18.713Z,100114.78
2023-04-15T07:10:21.061Z,100116.28
2023-04-15T07:15:24.605Z,100126.75
2023-04-15T07:20:26.608Z,100128.75
2023-04-15T07:25:28.427Z,100131.38
2023-04-15T07:30:31.867Z,100132.28
2023-04-15T07:35:33.654Z,100136.28
2023-04-15T07:40:35.706Z,100131.56
2023-04-15T07:45:39.305Z,100132.72
2023-04-15T07:50:41.427Z,100142.88
2023-04-15T07:55:43.573Z,100147.59
2023-04-15T08:00:47.187Z,100146.53
2023-04-15T08:05:48.899Z,100150.63
2023-04-15T08:10:52.597Z,100152.47
2023-04-15T08:16:16.500Z,100160.81
2023-04-15T08:21:20.054Z,100168.16
2023-04-15T08:26:21.895Z,100168.16
2023-04-15T08:31:27.286Z,100172.75
2023-04-15T08:36:29.353Z,100179.16
2023-04-15T08:41:39.328Z,100186.63
2023-04-15T08:46:42.630Z,100188.84
2023-04-15T08:51:45.428Z,100190.66
2023-04-15T08:56:48.443Z,100194.97
2023-04-15T09:01:52.103Z,100202.81
2023-04-15T09:06:54.357Z,100206.31
2023-04-15T09:11:57.066Z,100199.28
2023-04-15T09:17:02.036Z,100204.31
2023-04-15T09:22:04.685Z,100205.13
2023-04-15T09:27:07.819Z,100201.50
2023-04-15T09:32:13.317Z,100214.78
2023-04-15T09:37:31.354Z,100224.28
2023-04-15T09:42:34.825Z,100221.03
2023-04-15T09:47:39.162Z,100222.72
2023-04-15T09:52:42.954Z,100227.13
2023-04-15T09:57:46.286Z,100245.69
2023-04-15T10:02:49.987Z,100244.06
2023-04-15T10:07:51.913Z,100250.31
2023-04-15T10:12:55.561Z,100252.09
2023-04-15T10:18:01.749Z,100261.88
2023-04-15T10:23:04.899Z,100262.03
2023-04-15T10:28:11.182Z,100267.34
2023-04-15T10:33:16.094Z,100268.22
2023-04-15T10:38:36.732Z,100277.91
2023-04-15T10:43:39.254Z,100276.16
2023-04-15T10:48:49.419Z,100283.13
2023-04-15T10:53:51.265Z,100277.72
2023-04-15T10:58:53.218Z,100275.81
2023-04-15T11:03:56.480Z,100281.09
2023-04-15T11:09:00.369Z,100287.19
2023-04-15T11:14:05.119Z,100289.13
2023-04-15T11:19:11.081Z,100294.53
2023-04-15T11:24:24.562Z,100299.78
2023-04-15T11:29:29.602Z,100308.56
2023-04-15T11:34:34.559Z,100311.34
2023-04-15T11:39:38.070Z,100313.84
2023-04-15T11:44:39.755Z,100318.34
2023-04-15T11:49:43.326Z,100318.38
2023-04-15T11:54:45.093Z,100331.72
2023-04-15T11:59:46.816Z,100336.81
2023-04-15T12:04:50.011Z,100342.34
2023-04-15T12:09:55.422Z,100335.09
2023-04-15T12:14:57.522Z,100347.25
2023-04-15T12:20:00.689Z,100349.78
2023-04-15T12:25:06.323Z,100351.13
2023-04-15T12:30:08.821Z,100358.34
2023-04-15T12:35:12.697Z,100363.75
2023-04-15T12:40:14.849Z,100365.41
2023-04-15T12:45:16.921Z,100365.34
2023-04-15T12:50:20.351Z,100371.09
2023-04-15T12:55:22.461Z,100385.00
2023-04-15T13:00:24.540Z,100383.78
2023-04-15T13:05:27.644Z,100385.94
2023-04-15T13:10:29.998Z,100398.41
2023-04-15T13:15:32.424Z,100392.09
2023-04-15T13:20:36.636Z,100392.44
2023-04-15T13:25:39.498Z,100390.53
2023-04-15T13:30:41.729Z,100393.25
2023-04-15T13:35:45.425Z,100398.56
2023-04-15T13:40:47.844Z,100408.97
2023-04-15T13:45:50.268Z,100415.97
2023-04-15T13:50:53.700Z,100422.94
2023-04-15T13:55:56.519Z,100425.59
2023-04-15T14:00:58.738Z,100428.28
2023-04-15T14:06:02.090Z,100428.59
2023-04-15T14:11:03.921Z,100439.06
2023-04-15T14:16:06.106Z,100446.16
2023-04-15T14:21:09.196Z,100448.00
2023-04-15T14:26:11.273Z,100449.53
2023-04-15T14:31:13.040Z,100456.69
2023-04-15T14:36:16.850Z,100467.59
2023-04-15T14:41:19.030Z,100469.47
2023-04-15T14:46:21.462Z,100485.09
2023-04-15T14:51:24.908Z,100486.88
2023-04-15T14:56:27.096Z,100478.22
2023-04-15T15:01:29.148Z,100488.19
2023-04-15T15:06:32.880Z,100501.28
2023-04-15T15:11:34.688Z,100505.03
2023-04-15T15:16:37.618Z,100508.84
2023-04-15T15:21:40.751Z,100519.44
2023-04-15T15:26:42.733Z,100528.34
2023-04-15T15:31:44.867Z,100526.56
2023-04-15T15:36:48.552Z,100535.34
2023-04-15T15:41:50.357Z,100539.59
2023-04-15T15:46:52.182Z,100541.34
2023-04-15T15:51:56.060Z,100546.72
2023-04-15T15:56:57.796Z,100548.41
2023-04-15T16:01:59.749Z,100549.47
2023-04-15T16:07:02.924Z,100554.72
2023-04-15T16:12:05.027Z,100561.03
2023-04-15T16:17:06.717Z,100570.81
2023-04-15T16:22:09.882Z,100564.66
2023-04-15T16:27:12.545Z,100576.03
2023-04-15T16:32:14.639Z,100583.16
2023-04-15T16:37:18.104Z,100585.88
2023-04-15T16:42:19.868Z,100589.53
2023-04-15T16:47:21.767Z,100587.81
2023-04-15T16:52:24.863Z,100596.72
2023-04-15T16:57:27.191Z,100607.41
2023-04-15T17:02:49.355Z,100607.47
2023-04-15T17:07:58.427Z,100610.94
2023-04-15T17:13:00.182Z,100613.44
2023-04-15T17:18:02.184Z,100630.28
2023-04-15T17:23:05.989Z,100626.69
2023-04-15T17:28:08.417Z,100637.28
2023-04-15T17:33:55.952Z,100649.59
2023-04-15T17:38:33.729Z,100648.81
2023-04-15T17:43:35.483Z,100658.59
2023-04-15T17:48:37.664Z,100655.91
2023-04-15T17:53:41.196Z,100663.16
2023-04-15T17:58:43.226Z,100668.59
2023-04-15T18:03:45.913Z,100681.03
2023-04-15T18:08:49.039Z,100688.97
2023-04-15T18:13:50.914Z,100696.00
2023-04-15T18:18:54.131Z,100702.16
2023-04-15T18:23:57.210Z,100701.41
2023-04-15T18:28:59.199Z,100707.63
2023-04-15T18:34:01.389Z,100720.03
2023-04-15T18:39:05.279Z,100723.56
2023-04-15T18:44:07.744Z,100739.47
2023-04-15T18:49:11.585Z,100741.28
2023-04-15T18:54:15.916Z,100744.84
2023-04-15T18:59:29.801Z,100755.44
2023-04-15T19:04:38.743Z,100751.94
2023-04-15T19:09:41.992Z,100754.59
2023-04-15T19:14:43.760Z,100755.47
2023-04-15T19:19:45.845Z,100774.00
2023-04-15T19:24:49.542Z,100778.38
2023-04-15T19:29:51.986Z,100781.09
2023-04-15T19:34:54.068Z,100782.00
2023-04-15T19:39:57.160Z,100789.97
2023-04-15T19:45:01.590Z,100795.28
2023-04-15T19:50:04.338Z,100797.00
2023-04-15T19:55:08.719Z,100790.84
2023-04-15T20:00:11.551Z,100790.84
2023-04-15T20:05:13.419Z,100794.41
2023-04-15T20:10:16.551Z,100800.56
2023-04-15T20:15:18.363Z,100805.81
2023-04-15T20:20:21.125Z,100804.09
2023-04-15T20:25:25.272Z,100806.75
2023-04-15T20:30:27.425Z,100813.84
2023-04-15T20:35:29.351Z,100817.41
2023-04-15T20:40:32.477Z,100805.03
2023-04-15T20:45:34.396Z,100813.88
2023-04-15T20:50:36.546Z,100813.88
2023-04-15T20:55:39.598Z,100812.09
2023-04-15T21:00:41.977Z,100811.19
2023-04-15T21:05:43.841Z,100820.78
2023-04-15T21:10:47.128Z,100827.03
2023-04-15T21:15:49.224Z,100833.16
2023-04-15T21:20:56.801Z,100841.13
2023-04-15T21:26:00.246Z,100846.38
2023-04-15T21:31:02.902Z,100847.28
2023-04-15T21:36:05.540Z,100858.81
2023-04-15T21:41:08.843Z,100861.47
2023-04-15T21:46:23.469Z,100861.47
2023-04-15T21:51:27.408Z,100865.91
2023-04-15T21:56:30.722Z,100872.94
2023-04-15T22:01:32.850Z,100876.50
2023-04-15T22:06:35.355Z,100884.41
2023-04-15T22:11:38.769Z,100885.28
2023-04-15T22:16:40.498Z,100889.78
2023-04-15T22:21:42.812Z,100895.03
2023-04-15T22:26:46.255Z,100897.78
2023-04-15T22:31:48.658Z,100907.53
2023-04-15T22:36:51.965Z,100914.59
2023-04-15T22:41:55.462Z,100926.13
2023-04-15T22:46:57.191Z,100920.78
2023-04-15T22:51:58.938Z,100924.28
2023-04-15T22:57:02.571Z,100931.31
2023-04-15T23:02:04.753Z,100928.66
2023-04-15T23:07:06.543Z,100929.63
2023-04-15T23:12:10.169Z,100936.63
2023-04-15T23:17:12.181Z,100951.69
2023-04-15T23:22:14.225Z,100949.97
2023-04-15T23:27:17.719Z,100955.28
2023-04-15T23:32:20.093Z,100950.88
2023-04-15T23:37:22.066Z,100957.03
2023-04-15T23:42:25.582Z,100956.09
2023-04-15T23:47:27.562Z,100961.41
2023-04-15T23:52:29.741Z,100961.41
2023-04-15T23:57:33.229Z,100964.06
